createdAt,value
2018-06-16T00:00:24.557Z,0.00
2018-06-16T00:01:24.466Z,0.00
2018-06-16T00:02:24.375Z,0.00
2018-06-16T00:03:24.285Z,0.00
2018-06-16T00:04:24.193Z,0.00
2018-06-16T00:05:24.090Z,0.00
2018-06-16T00:06:24.000Z,0.00
2018-06-16T00:07:23.913Z,0.00
2018-06-16T00:08:23.819Z,0.00
2018-06-16T00:09:23.715Z,0.00
2018-06-16T00:10:23.623Z,0.00
2018-06-16T00:11:23.533Z,0.00
2018-06-16T00:12:23.441Z,0.00
2018-06-16T00:13:23.354Z,0.00
2018-06-16T00:14:23.248Z,0.00
2018-06-16T00:15:23.157Z,0.00
2018-06-16T00:16:23.067Z,0.00
2018-06-16T00:17:22.975Z,0.00
2018-06-16T00:18:22.872Z,0.00
2018-06-16T00:19:22.805Z,0.00
2018-06-16T00:20:22.690Z,0.00
2018-06-16T00:21:22.600Z,0.00
2018-06-16T00:22:22.508Z,0.00
2018-06-16T00:23:22.405Z,0.00
2018-06-16T00:24:22.315Z,0.00
2018-06-16T00:25:22.225Z,0.00
2018-06-16T00:26:22.134Z,0.00
2018-06-16T00:27:22.030Z,0.00
2018-06-16T00:28:21.938Z,0.00
2018-06-16T00:29:21.848Z,0.00
2018-06-16T00:30:21.757Z,0.00
2018-06-16T00:31:21.667Z,0.00
2018-06-16T00:32:21.563Z,0.00
2018-06-16T00:33:21.722Z,0.00
2018-06-16T00:34:21.382Z,0.00
2018-06-16T00:35:21.292Z,0.00
2018-06-16T00:36:21.188Z,0.00
2018-06-16T00:37:21.096Z,0.00
2018-06-16T00:38:21.019Z,0.00
2018-06-16T00:39:20.915Z,0.00
2018-06-16T00:40:20.811Z,0.00
2018-06-16T00:41:20.795Z,0.00
2018-06-16T00:42:20.630Z,0.00
2018-06-16T00:43:20.538Z,0.00
2018-06-16T00:44:20.436Z,0.00
2018-06-16T00:45:20.345Z,0.00
2018-06-16T00:46:20.254Z,0.00
2018-06-16T00:47:20.163Z,0.00
2018-06-16T00:48:20.071Z,0.00
2018-06-16T00:49:19.968Z,0.00
2018-06-16T00:50:19.878Z,0.00
2018-06-16T00:51:19.787Z,0.00
2018-06-16T00:52:19.697Z,0.00
2018-06-16T00:53:19.594Z,0.00
2018-06-16T00:54:19.502Z,0.00
2018-06-16T00:55:19.412Z,0.00
2018-06-16T00:56:19.320Z,0.00
2018-06-16T00:57:19.220Z,0.00
2018-06-16T00:58:19.129Z,0.00
2018-06-16T00:59:19.035Z,0.00
2018-06-16T01:00:18.951Z,0.00
2018-06-16T01:01:18.842Z,0.00
2018-06-16T01:02:18.751Z,0.00
2018-06-16T01:03:18.661Z,0.00
2018-06-16T01:04:18.568Z,0.00
2018-06-16T01:05:18.469Z,0.00
2018-06-16T01:06:18.377Z,0.00
2018-06-16T01:07:18.284Z,0.00
2018-06-16T01:08:18.197Z,0.00
2018-06-16T01:09:18.102Z,0.00
2018-06-16T01:10:17.999Z,0.00
2018-06-16T01:11:17.909Z,0.00
2018-06-16T01:12:17.821Z,0.00
2018-06-16T01:13:17.727Z,0.00
2018-06-16T01:14:17.624Z,0.00
2018-06-16T01:15:17.533Z,0.00
2018-06-16T01:16:17.467Z,0.00
2018-06-16T01:17:17.351Z,0.00
2018-06-16T01:18:17.248Z,0.00
2018-06-16T01:19:17.157Z,0.00
2018-06-16T01:20:17.079Z,0.00
2018-06-16T01:21:16.977Z,0.00
2018-06-16T01:22:16.872Z,0.00
2018-06-16T01:23:16.782Z,0.00
2018-06-16T01:24:16.691Z,0.00
2018-06-16T01:25:16.607Z,0.00
2018-06-16T01:26:16.500Z,0.00
2018-06-16T01:27:16.407Z,0.00
2018-06-16T01:28:16.314Z,0.00
2018-06-16T01:29:16.226Z,0.00
2018-06-16T01:30:16.123Z,0.00
2018-06-16T01:31:16.032Z,0.00
2018-06-16T01:32:15.940Z,0.00
2018-06-16T01:33:15.848Z,0.00
2018-06-16T01:34:15.744Z,0.00
2018-06-16T01:35:15.655Z,0.00
2018-06-16T01:36:15.563Z,0.00
2018-06-16T01:37:15.474Z,0.00
2018-06-16T01:38:15.370Z,0.00
2018-06-16T01:39:15.279Z,0.00
2018-06-16T01:40:15.189Z,0.00
2018-06-16T01:41:15.096Z,0.00
2018-06-16T01:42:14.993Z,0.00
2018-06-16T01:43:14.903Z,0.00
2018-06-16T01:44:14.812Z,0.00
2018-06-16T01:45:14.709Z,0.00
2018-06-16T01:46:14.618Z,0.00
2018-06-16T01:47:14.527Z,0.00
2018-06-16T01:48:14.436Z,0.00
2018-06-16T01:49:14.334Z,0.00
2018-06-16T01:50:14.242Z,0.00
2018-06-16T01:51:14.152Z,0.00
2018-06-16T01:52:14.049Z,0.00
2018-06-16T01:53:13.971Z,0.00
2018-06-16T01:54:13.868Z,0.00
2018-06-16T01:55:13.776Z,0.00
2018-06-16T01:56:13.673Z,0.00
2018-06-16T01:57:13.582Z,0.00
2018-06-16T01:58:13.490Z,4.00
2018-06-16T01:59:13.406Z,4.00
2018-06-16T02:00:13.298Z,4.00
2018-06-16T02:01:13.206Z,0.00
2018-06-16T02:02:13.116Z,0.00
2018-06-16T02:03:13.014Z,4.00
2018-06-16T02:04:12.937Z,4.00
2018-06-16T02:05:12.832Z,4.00
2018-06-16T02:06:12.739Z,4.00
2018-06-16T02:07:12.636Z,4.00
2018-06-16T02:08:12.846Z,8.00
2018-06-16T02:09:12.467Z,4.00
2018-06-16T02:10:12.352Z,8.00
2018-06-16T02:11:12.261Z,8.00
2018-06-16T02:12:12.216Z,8.00
2018-06-16T02:13:12.079Z,12.00
2018-06-16T02:14:11.976Z,12.00
2018-06-16T02:15:11.886Z,12.00
2018-06-16T02:16:11.795Z,12.00
2018-06-16T02:17:11.690Z,16.00
2018-06-16T02:18:11.600Z,16.00
2018-06-16T02:19:11.509Z,20.00
2018-06-16T02:20:11.417Z,24.00
2018-06-16T02:21:11.314Z,24.00
2018-06-16T02:22:11.225Z,28.00
2018-06-16T02:23:11.133Z,32.00
2018-06-16T02:24:11.031Z,32.00
2018-06-16T02:25:10.939Z,32.00
2018-06-16T02:26:10.855Z,40.00
2018-06-16T02:27:10.759Z,40.00
2018-06-16T02:28:10.906Z,48.00
2018-06-16T02:29:10.563Z,52.00
2018-06-16T02:30:10.474Z,56.00
2018-06-16T02:31:10.370Z,64.00
2018-06-16T02:32:10.278Z,68.00
2018-06-16T02:33:10.188Z,72.00
2018-06-16T02:34:10.086Z,80.00
2018-06-16T02:35:09.993Z,88.00
2018-06-16T02:36:09.903Z,92.00
2018-06-16T02:37:09.811Z,104.00
2018-06-16T02:38:09.958Z,112.00
2018-06-16T02:39:09.618Z,120.00
2018-06-16T02:40:09.527Z,128.00
2018-06-16T02:41:09.423Z,144.00
2018-06-16T02:42:09.340Z,152.00
2018-06-16T02:43:09.241Z,164.00
2018-06-16T02:44:09.140Z,172.00
2018-06-16T02:45:09.049Z,184.00
2018-06-16T02:46:08.957Z,196.00
2018-06-16T02:47:08.866Z,212.00
2018-06-16T02:48:08.763Z,228.00
2018-06-16T02:49:08.671Z,240.00
2018-06-16T02:50:08.669Z,256.00
2018-06-16T02:51:08.490Z,268.00
2018-06-16T02:52:08.387Z,284.00
2018-06-16T02:53:08.296Z,300.00
2018-06-16T02:54:08.205Z,316.00
2018-06-16T02:55:08.104Z,328.00
2018-06-16T02:56:08.012Z,344.00
2018-06-16T02:57:07.921Z,360.00
2018-06-16T02:58:08.117Z,380.00
2018-06-16T02:59:07.726Z,404.00
2018-06-16T03:00:07.637Z,420.00
2018-06-16T03:01:07.545Z,440.00
2018-06-16T03:02:07.443Z,456.00
2018-06-16T03:03:07.351Z,472.00
2018-06-16T03:04:07.261Z,484.00
2018-06-16T03:05:07.157Z,496.00
2018-06-16T03:06:07.065Z,508.00
2018-06-16T03:07:06.976Z,520.00
2018-06-16T03:08:07.133Z,544.00
2018-06-16T03:09:06.781Z,572.00
2018-06-16T03:10:06.691Z,600.00
2018-06-16T03:11:06.599Z,624.00
2018-06-16T03:12:06.496Z,652.00
2018-06-16T03:13:06.405Z,680.00
2018-06-16T03:14:06.314Z,712.00
2018-06-16T03:15:06.235Z,736.00
2018-06-16T03:16:06.123Z,760.00
2018-06-16T03:17:06.029Z,780.00
2018-06-16T03:18:06.239Z,800.00
2018-06-16T03:19:05.848Z,824.00
2018-06-16T03:20:05.745Z,848.00
2018-06-16T03:21:05.654Z,872.00
2018-06-16T03:22:05.562Z,896.00
2018-06-16T03:23:05.460Z,920.00
2018-06-16T03:24:05.369Z,936.00
2018-06-16T03:25:05.277Z,968.00
2018-06-16T03:26:05.187Z,1012.00
2018-06-16T03:27:05.117Z,1072.00
2018-06-16T03:28:04.992Z,1116.00
2018-06-16T03:29:04.903Z,1140.00
2018-06-16T03:30:04.811Z,1152.00
2018-06-16T03:31:04.707Z,1168.00
2018-06-16T03:32:04.622Z,1188.00
2018-06-16T03:33:04.526Z,1224.00
2018-06-16T03:34:04.424Z,1260.00
2018-06-16T03:35:04.333Z,1316.00
2018-06-16T03:36:04.245Z,1376.00
2018-06-16T03:37:04.151Z,1436.00
2018-06-16T03:38:04.047Z,1484.00
2018-06-16T03:39:03.956Z,1516.00
2018-06-16T03:40:03.867Z,1540.00
2018-06-16T03:41:03.775Z,1572.00
2018-06-16T03:42:03.671Z,1596.00
2018-06-16T03:43:03.580Z,1612.00
2018-06-16T03:44:03.490Z,1616.00
2018-06-16T03:45:03.399Z,1628.00
2018-06-16T03:46:03.295Z,1652.00
2018-06-16T03:47:03.204Z,1684.00
2018-06-16T03:48:03.116Z,1736.00
2018-06-16T03:49:03.023Z,1788.00
2018-06-16T03:50:02.919Z,1832.00
2018-06-16T03:51:02.831Z,1872.00
2018-06-16T03:52:02.739Z,1912.00
2018-06-16T03:53:02.647Z,1964.00
2018-06-16T03:54:02.544Z,2024.00
2018-06-16T03:55:02.454Z,2092.00
2018-06-16T03:56:02.363Z,2148.00
2018-06-16T03:57:02.272Z,2188.00
2018-06-16T03:58:02.169Z,2232.00
2018-06-16T03:59:02.079Z,2288.00
2018-06-16T04:00:01.989Z,2328.00
2018-06-16T04:01:01.896Z,2360.00
2018-06-16T04:02:01.797Z,2388.00
2018-06-16T04:03:01.714Z,2428.00
2018-06-16T04:04:01.612Z,2464.00
2018-06-16T04:05:01.524Z,2504.00
2018-06-16T04:06:01.423Z,2532.00
2018-06-16T04:07:01.338Z,2560.00
2018-06-16T04:08:01.235Z,2604.00
2018-06-16T04:09:01.145Z,2664.00
2018-06-16T04:10:01.042Z,2720.00
2018-06-16T04:11:00.951Z,2768.00
2018-06-16T04:12:00.860Z,2800.00
2018-06-16T04:13:00.769Z,2844.00
2018-06-16T04:14:00.679Z,2900.00
2018-06-16T04:15:00.575Z,2956.00
2018-06-16T04:16:00.483Z,3008.00
2018-06-16T04:17:00.394Z,3068.00
2018-06-16T04:18:00.303Z,3148.00
2018-06-16T04:19:00.199Z,3240.00
2018-06-16T04:20:00.108Z,3320.00
2018-06-16T04:21:00.020Z,3392.00
2018-06-16T04:21:59.927Z,3476.00
2018-06-16T04:22:59.839Z,3576.00
2018-06-16T04:23:59.775Z,3660.00
2018-06-16T04:24:59.643Z,3744.00
2018-06-16T04:25:59.554Z,3824.00
2018-06-16T04:26:59.464Z,3928.00
2018-06-16T04:27:59.368Z,4036.00
2018-06-16T04:28:59.265Z,4112.00
2018-06-16T04:29:59.176Z,4148.00
2018-06-16T04:30:59.084Z,4164.00
2018-06-16T04:31:59.062Z,4188.00
2018-06-16T04:32:58.890Z,4216.00
2018-06-16T04:33:58.811Z,4272.00
2018-06-16T04:34:58.709Z,4352.00
2018-06-16T04:35:58.619Z,4436.00
2018-06-16T04:36:58.528Z,4492.00
2018-06-16T04:37:58.425Z,4532.00
2018-06-16T04:38:58.332Z,4600.00
2018-06-16T04:39:58.242Z,4700.00
2018-06-16T04:40:58.152Z,4808.00
2018-06-16T04:41:58.060Z,4900.00
2018-06-16T04:42:58.210Z,4968.00
2018-06-16T04:43:57.883Z,5016.00
2018-06-16T04:44:57.779Z,5056.00
2018-06-16T04:45:57.684Z,5068.00
2018-06-16T04:46:57.641Z,5124.00
2018-06-16T04:47:57.492Z,5200.00
2018-06-16T04:48:57.400Z,5304.00
2018-06-16T04:49:57.310Z,5416.00
2018-06-16T04:50:57.218Z,5516.00
2018-06-16T04:51:57.118Z,5600.00
2018-06-16T04:52:57.027Z,5704.00
2018-06-16T04:53:56.932Z,5828.00
2018-06-16T04:54:56.842Z,5972.00
2018-06-16T04:55:56.751Z,6120.00
2018-06-16T04:56:56.670Z,6216.00
2018-06-16T04:57:56.558Z,6256.00
2018-06-16T04:58:56.467Z,6288.00
2018-06-16T04:59:56.376Z,6364.00
2018-06-16T05:00:56.285Z,6460.00
2018-06-16T05:01:56.196Z,6520.00
2018-06-16T05:02:56.103Z,6588.00
2018-06-16T05:03:55.999Z,6704.00
2018-06-16T05:04:55.910Z,6876.00
2018-06-16T05:05:55.820Z,7068.00
2018-06-16T05:06:55.731Z,7248.00
2018-06-16T05:07:55.640Z,7396.00
2018-06-16T05:08:55.553Z,7472.00
2018-06-16T05:09:55.443Z,7472.00
2018-06-16T05:10:55.351Z,7420.00
2018-06-16T05:11:55.264Z,7376.00
2018-06-16T05:12:55.170Z,7432.00
2018-06-16T05:13:55.106Z,7488.00
2018-06-16T05:14:54.988Z,7576.00
2018-06-16T05:15:54.897Z,7760.00
2018-06-16T05:16:54.813Z,7972.00
2018-06-16T05:17:54.703Z,8204.00
2018-06-16T05:18:54.615Z,8448.00
2018-06-16T05:19:54.521Z,8668.00
2018-06-16T05:20:54.432Z,8844.00
2018-06-16T05:21:54.390Z,8920.00
2018-06-16T05:22:54.250Z,8952.00
2018-06-16T05:23:54.159Z,9012.00
2018-06-16T05:24:54.056Z,9152.00
2018-06-16T05:25:53.965Z,9308.00
2018-06-16T05:26:53.873Z,9460.00
2018-06-16T05:27:54.033Z,10272.00
2018-06-16T05:28:53.693Z,9644.00
2018-06-16T05:29:53.602Z,9744.00
2018-06-16T05:30:53.510Z,9832.00
2018-06-16T05:31:53.420Z,9944.00
2018-06-16T05:32:53.328Z,10044.00
2018-06-16T05:33:53.238Z,10104.00
2018-06-16T05:34:53.135Z,10188.00
2018-06-16T05:35:53.044Z,10268.00
2018-06-16T05:36:52.953Z,10332.00
2018-06-16T05:37:53.161Z,10456.00
2018-06-16T05:38:52.772Z,10488.00
2018-06-16T05:39:52.680Z,10584.00
2018-06-16T05:40:52.590Z,10740.00
2018-06-16T05:41:52.498Z,10868.00
2018-06-16T05:42:52.408Z,10960.00
2018-06-16T05:43:52.316Z,11048.00
2018-06-16T05:44:52.227Z,11156.00
2018-06-16T05:45:52.135Z,11276.00
2018-06-16T05:46:52.047Z,11444.00
2018-06-16T05:47:51.942Z,11568.00
2018-06-16T05:48:51.851Z,11676.00
2018-06-16T05:49:51.779Z,11800.00
2018-06-16T05:50:51.669Z,11920.00
2018-06-16T05:51:51.578Z,12056.00
2018-06-16T05:52:51.487Z,12216.00
2018-06-16T05:53:51.399Z,12360.00
2018-06-16T05:54:51.304Z,12472.00
2018-06-16T05:55:51.215Z,12552.00
2018-06-16T05:56:51.123Z,12692.00
2018-06-16T05:57:51.033Z,12892.00
2018-06-16T05:58:50.942Z,13044.00
2018-06-16T05:59:50.853Z,13152.00
2018-06-16T06:00:50.761Z,13212.00
2018-06-16T06:01:50.671Z,13196.00
2018-06-16T06:02:50.580Z,13208.00
2018-06-16T06:03:50.491Z,13284.00
2018-06-16T06:04:50.402Z,13308.00
2018-06-16T06:05:50.318Z,13316.00
2018-06-16T06:06:50.229Z,13432.00
2018-06-16T06:07:50.137Z,13632.00
2018-06-16T06:08:50.048Z,13788.00
2018-06-16T06:09:49.955Z,13780.00
2018-06-16T06:10:49.866Z,13736.00
2018-06-16T06:11:49.774Z,13744.00
2018-06-16T06:12:49.685Z,13792.00
2018-06-16T06:13:49.592Z,13888.00
2018-06-16T06:14:49.502Z,14032.00
2018-06-16T06:15:49.416Z,14200.00
2018-06-16T06:16:49.321Z,14664.00
2018-06-16T06:17:49.230Z,14492.00
2018-06-16T06:18:49.139Z,14492.00
2018-06-16T06:19:49.049Z,14392.00
2018-06-16T06:20:48.969Z,14292.00
2018-06-16T06:21:48.879Z,14232.00
2018-06-16T06:22:48.787Z,14240.00
2018-06-16T06:23:48.701Z,14312.00
2018-06-16T06:24:48.606Z,14476.00
2018-06-16T06:25:48.516Z,14688.00
2018-06-16T06:26:48.425Z,14948.00
2018-06-16T06:27:48.334Z,15240.00
2018-06-16T06:28:48.243Z,15448.00
2018-06-16T06:29:48.156Z,15484.00
2018-06-16T06:30:48.062Z,15408.00
2018-06-16T06:31:47.983Z,15392.00
2018-06-16T06:32:47.893Z,15476.00
2018-06-16T06:33:47.803Z,15568.00
2018-06-16T06:34:47.711Z,15700.00
2018-06-16T06:35:47.620Z,15928.00
2018-06-16T06:36:47.529Z,16260.00
2018-06-16T06:37:47.438Z,16564.00
2018-06-16T06:38:47.348Z,17024.00
2018-06-16T06:39:47.257Z,17152.00
2018-06-16T06:40:47.167Z,17216.00
2018-06-16T06:41:47.090Z,17472.00
2018-06-16T06:42:47.247Z,17088.00
2018-06-16T06:43:46.907Z,16484.00
2018-06-16T06:44:46.815Z,16276.00
2018-06-16T06:45:46.724Z,16080.00
2018-06-16T06:46:46.648Z,16008.00
2018-06-16T06:47:46.543Z,16048.00
2018-06-16T06:48:46.452Z,16208.00
2018-06-16T06:49:46.363Z,16428.00
2018-06-16T06:50:46.284Z,16896.00
2018-06-16T06:51:46.260Z,17024.00
2018-06-16T06:52:46.102Z,16960.00
2018-06-16T06:53:46.010Z,16688.00
2018-06-16T06:54:45.920Z,16568.00
2018-06-16T06:55:45.828Z,16504.00
2018-06-16T06:56:45.738Z,16544.00
2018-06-16T06:57:45.647Z,16896.00
2018-06-16T06:58:45.568Z,17248.00
2018-06-16T06:59:45.483Z,17344.00
2018-06-16T07:00:45.387Z,17376.00
2018-06-16T07:01:45.297Z,17344.00
2018-06-16T07:02:45.205Z,17376.00
2018-06-16T07:03:45.122Z,17408.00
2018-06-16T07:04:45.025Z,17440.00
2018-06-16T07:05:44.935Z,17248.00
2018-06-16T07:06:44.856Z,16960.00
2018-06-16T07:07:44.763Z,16620.00
2018-06-16T07:08:44.674Z,16576.00
2018-06-16T07:09:44.582Z,16604.00
2018-06-16T07:10:44.549Z,16760.00
2018-06-16T07:11:44.401Z,17216.00
2018-06-16T07:12:44.313Z,17632.00
2018-06-16T07:13:44.232Z,17760.00
2018-06-16T07:14:44.145Z,17920.00
2018-06-16T07:15:44.050Z,18656.00
2018-06-16T07:16:43.959Z,20480.00
2018-06-16T07:17:43.871Z,20928.00
2018-06-16T07:18:43.777Z,20544.00
2018-06-16T07:19:43.689Z,20544.00
2018-06-16T07:20:43.609Z,21280.00
2018-06-16T07:21:43.520Z,21344.00
2018-06-16T07:22:43.428Z,21920.00
2018-06-16T07:23:43.336Z,22624.00
2018-06-16T07:24:43.246Z,22848.00
2018-06-16T07:25:43.156Z,24320.00
2018-06-16T07:26:43.076Z,24000.00
2018-06-16T07:27:42.986Z,25344.00
2018-06-16T07:28:42.894Z,28064.00
2018-06-16T07:29:42.805Z,28352.00
2018-06-16T07:30:42.713Z,23392.00
2018-06-16T07:31:42.623Z,22912.00
2018-06-16T07:32:42.533Z,24544.00
2018-06-16T07:33:42.453Z,23424.00
2018-06-16T07:34:42.362Z,22560.00
2018-06-16T07:35:42.271Z,22240.00
2018-06-16T07:36:42.182Z,22560.00
2018-06-16T07:37:42.102Z,21408.00
2018-06-16T07:38:42.012Z,19744.00
2018-06-16T07:39:41.921Z,19136.00
2018-06-16T07:40:41.829Z,18112.00
2018-06-16T07:41:41.751Z,18304.00
2018-06-16T07:42:41.662Z,27136.00
2018-06-16T07:43:41.571Z,110688.00
2018-06-16T07:44:41.480Z,100800.00
2018-06-16T07:45:41.388Z,42688.00
2018-06-16T07:46:41.310Z,38656.00
2018-06-16T07:47:41.219Z,32736.00
2018-06-16T07:48:41.128Z,43936.00
2018-06-16T07:49:41.039Z,48096.00
2018-06-16T07:50:40.960Z,51328.00
2018-06-16T07:51:40.881Z,35008.00
2018-06-16T07:52:41.029Z,36384.00
2018-06-16T07:53:40.688Z,34208.00
2018-06-16T07:54:40.608Z,33120.00
2018-06-16T07:55:40.519Z,50048.00
2018-06-16T07:56:40.451Z,33856.00
2018-06-16T07:57:40.348Z,33440.00
2018-06-16T07:58:40.258Z,36448.00
2018-06-16T07:59:40.169Z,35328.00
2018-06-16T08:00:40.089Z,33600.00
2018-06-16T08:01:40.004Z,36512.00
2018-06-16T08:02:40.169Z,35552.00
2018-06-16T08:03:39.863Z,36064.00
2018-06-16T08:04:39.738Z,32960.00
2018-06-16T08:05:39.661Z,36960.00
2018-06-16T08:06:39.576Z,40000.00
2018-06-16T08:07:39.490Z,33664.00
2018-06-16T08:08:39.400Z,37216.00
2018-06-16T08:09:39.313Z,32576.00
2018-06-16T08:10:39.245Z,35264.00
2018-06-16T08:11:39.139Z,33824.00
2018-06-16T08:12:39.061Z,33600.00
2018-06-16T08:13:38.971Z,33408.00
2018-06-16T08:14:38.882Z,46944.00
2018-06-16T08:15:38.802Z,32064.00
2018-06-16T08:16:38.710Z,32192.00
2018-06-16T08:17:38.636Z,33120.00
2018-06-16T08:18:38.542Z,31456.00
2018-06-16T08:19:38.463Z,31296.00
2018-06-16T08:20:38.374Z,31584.00
2018-06-16T08:21:38.283Z,30816.00
2018-06-16T08:22:38.204Z,30144.00
2018-06-16T08:23:38.113Z,30176.00
2018-06-16T08:24:38.101Z,30368.00
2018-06-16T08:25:37.944Z,30464.00
2018-06-16T08:26:37.866Z,29568.00
2018-06-16T08:27:37.777Z,28864.00
2018-06-16T08:28:37.685Z,29088.00
2018-06-16T08:29:37.607Z,29568.00
2018-06-16T08:30:37.516Z,29728.00
2018-06-16T08:31:37.438Z,30304.00
2018-06-16T08:32:37.347Z,30624.00
2018-06-16T08:33:37.267Z,31040.00
2018-06-16T08:34:37.176Z,31392.00
2018-06-16T08:35:37.090Z,31968.00
2018-06-16T08:36:37.009Z,32480.00
2018-06-16T08:37:37.216Z,33536.00
2018-06-16T08:38:36.838Z,33280.00
2018-06-16T08:39:36.749Z,35072.00
2018-06-16T08:40:36.669Z,31072.00
2018-06-16T08:41:36.579Z,31360.00
2018-06-16T08:42:36.488Z,32128.00
2018-06-16T08:43:36.410Z,31808.00
2018-06-16T08:44:36.318Z,32864.00
2018-06-16T08:45:36.240Z,42944.00
2018-06-16T08:46:36.150Z,36416.00
2018-06-16T08:47:36.059Z,39392.00
2018-06-16T08:48:35.981Z,40160.00
2018-06-16T08:49:35.889Z,38720.00
2018-06-16T08:50:35.811Z,46688.00
2018-06-16T08:51:35.725Z,37472.00
2018-06-16T08:52:35.641Z,36160.00
2018-06-16T08:53:35.552Z,36544.00
2018-06-16T08:54:35.461Z,36288.00
2018-06-16T08:55:35.525Z,38208.00
2018-06-16T08:56:35.291Z,37504.00
2018-06-16T08:57:35.213Z,40544.00
2018-06-16T08:58:35.121Z,43744.00
2018-06-16T08:59:35.043Z,45088.00
2018-06-16T09:00:34.953Z,53440.00
2018-06-16T09:01:34.861Z,45280.00
2018-06-16T09:02:34.785Z,42112.00
2018-06-16T09:03:34.693Z,47008.00
2018-06-16T09:04:34.616Z,55872.00
2018-06-16T09:05:34.523Z,40512.00
2018-06-16T09:06:34.446Z,39936.00
2018-06-16T09:07:34.356Z,41536.00
2018-06-16T09:08:34.276Z,42784.00
2018-06-16T09:09:34.185Z,52064.00
2018-06-16T09:10:34.106Z,40320.00
2018-06-16T09:11:34.028Z,52768.00
2018-06-16T09:12:33.926Z,49952.00
2018-06-16T09:13:33.846Z,50848.00
2018-06-16T09:14:33.772Z,61152.00
2018-06-16T09:15:33.678Z,53984.00
2018-06-16T09:16:33.589Z,71136.00
2018-06-16T09:17:33.508Z,54304.00
2018-06-16T09:18:33.433Z,45600.00
2018-06-16T09:19:33.340Z,49728.00
2018-06-16T09:20:33.261Z,43968.00
2018-06-16T09:21:33.170Z,51872.00
2018-06-16T09:22:33.145Z,72032.00
2018-06-16T09:23:33.001Z,59744.00
2018-06-16T09:24:32.926Z,47104.00
2018-06-16T09:25:32.833Z,42880.00
2018-06-16T09:26:32.753Z,45952.00
2018-06-16T09:27:32.677Z,46176.00
2018-06-16T09:28:32.588Z,51712.00
2018-06-16T09:29:32.507Z,43104.00
2018-06-16T09:30:32.428Z,46720.00
2018-06-16T09:31:32.336Z,47936.00
2018-06-16T09:32:32.259Z,63712.00
2018-06-16T09:33:32.180Z,49952.00
2018-06-16T09:34:32.091Z,50848.00
2018-06-16T09:35:32.011Z,51232.00
2018-06-16T09:36:31.936Z,70592.00
2018-06-16T09:37:31.843Z,74560.00
2018-06-16T09:38:31.763Z,41696.00
2018-06-16T09:39:31.685Z,42912.00
2018-06-16T09:40:31.595Z,51456.00
2018-06-16T09:41:31.518Z,51552.00
2018-06-16T09:42:31.469Z,45632.00
2018-06-16T09:43:31.349Z,61344.00
2018-06-16T09:44:31.268Z,71456.00
2018-06-16T09:45:31.190Z,57984.00
2018-06-16T09:46:31.100Z,72352.00
2018-06-16T09:47:31.022Z,53952.00
2018-06-16T09:48:30.944Z,63680.00
2018-06-16T09:49:30.866Z,69056.00
2018-06-16T09:50:30.777Z,66624.00
2018-06-16T09:51:30.697Z,50592.00
2018-06-16T09:52:30.643Z,55392.00
2018-06-16T09:53:30.539Z,43136.00
2018-06-16T09:54:30.461Z,40992.00
2018-06-16T09:55:30.370Z,63296.00
2018-06-16T09:56:30.295Z,53344.00
2018-06-16T09:57:30.221Z,46944.00
2018-06-16T09:58:30.135Z,43616.00
2018-06-16T09:59:30.057Z,45440.00
2018-06-16T10:00:29.979Z,42976.00
2018-06-16T10:01:29.901Z,52096.00
2018-06-16T10:02:30.060Z,45184.00
2018-06-16T10:03:29.731Z,53504.00
2018-06-16T10:04:29.660Z,48448.00
2018-06-16T10:05:29.574Z,68992.00
2018-06-16T10:06:29.502Z,62208.00
2018-06-16T10:07:29.418Z,91424.00
2018-06-16T10:08:29.340Z,113408.00
2018-06-16T10:09:29.266Z,128448.00
2018-06-16T10:10:29.171Z,188064.00
2018-06-16T10:11:29.093Z,119744.00
2018-06-16T10:12:29.014Z,162176.00
2018-06-16T10:13:28.935Z,105216.00
2018-06-16T10:14:28.858Z,98880.00
2018-06-16T10:15:28.780Z,123008.00
2018-06-16T10:16:28.702Z,129216.00
2018-06-16T10:17:28.873Z,126112.00
2018-06-16T10:18:28.544Z,111296.00
2018-06-16T10:19:28.466Z,130304.00
2018-06-16T10:20:28.388Z,150272.00
2018-06-16T10:21:28.309Z,22176.00
2018-06-16T10:22:28.232Z,21216.00
2018-06-16T10:23:28.153Z,23552.00
2018-06-16T10:24:28.075Z,22816.00
2018-06-16T10:25:28.008Z,23808.00
2018-06-16T10:26:27.918Z,26720.00
2018-06-16T10:27:27.842Z,23712.00
2018-06-16T10:28:27.761Z,24032.00
2018-06-16T10:29:27.684Z,26944.00
2018-06-16T10:30:27.605Z,30528.00
2018-06-16T10:31:27.526Z,28384.00
2018-06-16T10:32:27.449Z,24608.00
2018-06-16T10:33:27.356Z,76224.00
2018-06-16T10:34:27.279Z,23712.00
2018-06-16T10:35:27.200Z,20672.00
2018-06-16T10:36:27.132Z,20448.00
2018-06-16T10:37:27.032Z,22400.00
2018-06-16T10:38:26.953Z,25984.00
2018-06-16T10:39:26.875Z,36576.00
2018-06-16T10:40:26.786Z,91520.00
2018-06-16T10:41:26.704Z,35008.00
2018-06-16T10:42:26.639Z,78496.00
2018-06-16T10:43:26.537Z,27232.00
2018-06-16T10:44:26.459Z,29888.00
2018-06-16T10:45:26.380Z,112768.00
2018-06-16T10:46:26.289Z,119136.00
2018-06-16T10:47:26.213Z,24512.00
2018-06-16T10:48:26.131Z,29536.00
2018-06-16T10:49:26.042Z,29024.00
2018-06-16T10:50:25.963Z,24320.00
2018-06-16T10:51:25.885Z,23936.00
2018-06-16T10:52:25.794Z,22656.00
2018-06-16T10:53:25.715Z,21728.00
2018-06-16T10:54:25.637Z,21088.00
2018-06-16T10:55:25.547Z,19584.00
2018-06-16T10:56:25.468Z,18560.00
2018-06-16T10:57:25.377Z,17632.00
2018-06-16T10:58:25.298Z,16928.00
2018-06-16T10:59:25.221Z,16008.00
2018-06-16T11:00:25.179Z,15604.00
2018-06-16T11:01:25.052Z,15740.00
2018-06-16T11:02:25.211Z,15660.00
2018-06-16T11:03:24.881Z,15724.00
2018-06-16T11:04:24.792Z,16456.00
2018-06-16T11:05:24.713Z,16928.00
2018-06-16T11:06:24.635Z,17760.00
2018-06-16T11:07:24.543Z,17888.00
2018-06-16T11:08:24.454Z,17888.00
2018-06-16T11:09:24.376Z,18848.00
2018-06-16T11:10:24.296Z,31328.00
2018-06-16T11:11:24.208Z,20416.00
2018-06-16T11:12:24.116Z,20704.00
2018-06-16T11:13:24.037Z,20640.00
2018-06-16T11:14:23.947Z,20096.00
2018-06-16T11:15:23.868Z,18976.00
2018-06-16T11:16:23.778Z,17568.00
2018-06-16T11:17:23.700Z,16332.00
2018-06-16T11:18:23.607Z,15636.00
2018-06-16T11:19:23.529Z,15116.00
2018-06-16T11:20:23.441Z,15040.00
2018-06-16T11:21:23.360Z,16992.00
2018-06-16T11:22:23.269Z,16768.00
2018-06-16T11:23:23.204Z,18400.00
2018-06-16T11:24:23.101Z,20512.00
2018-06-16T11:25:23.011Z,22624.00
2018-06-16T11:26:22.933Z,25376.00
2018-06-16T11:27:22.841Z,30720.00
2018-06-16T11:28:22.763Z,42496.00
2018-06-16T11:29:22.670Z,46272.00
2018-06-16T11:30:22.645Z,82880.00
2018-06-16T11:31:22.503Z,35456.00
2018-06-16T11:32:22.413Z,29248.00
2018-06-16T11:33:22.333Z,31328.00
2018-06-16T11:34:22.243Z,102912.00
2018-06-16T11:35:22.165Z,33856.00
2018-06-16T11:36:22.073Z,40256.00
2018-06-16T11:37:22.245Z,46112.00
2018-06-16T11:38:21.909Z,28480.00
2018-06-16T11:39:21.826Z,24896.00
2018-06-16T11:40:21.736Z,24128.00
2018-06-16T11:41:21.656Z,24640.00
2018-06-16T11:42:21.578Z,25216.00
2018-06-16T11:43:21.488Z,25728.00
2018-06-16T11:44:21.398Z,25696.00
2018-06-16T11:45:21.318Z,26688.00
2018-06-16T11:46:21.239Z,29376.00
2018-06-16T11:47:21.150Z,78528.00
2018-06-16T11:48:21.072Z,56800.00
2018-06-16T11:49:20.980Z,55584.00
2018-06-16T11:50:20.901Z,35776.00
2018-06-16T11:51:20.811Z,49408.00
2018-06-16T11:52:20.733Z,39616.00
2018-06-16T11:53:20.657Z,31520.00
2018-06-16T11:54:20.563Z,27744.00
2018-06-16T11:55:20.484Z,25568.00
2018-06-16T11:56:20.394Z,23520.00
2018-06-16T11:57:20.316Z,21984.00
2018-06-16T11:58:20.237Z,20992.00
2018-06-16T11:59:20.149Z,20224.00
2018-06-16T12:00:20.068Z,20224.00
2018-06-16T12:01:19.978Z,20768.00
2018-06-16T12:02:19.900Z,21344.00
2018-06-16T12:03:19.809Z,21504.00
2018-06-16T12:04:19.730Z,20608.00
2018-06-16T12:05:19.664Z,19264.00
2018-06-16T12:06:19.561Z,17824.00
2018-06-16T12:07:19.483Z,17152.00